createdAt,value
2022-10-07T00:00:52.826Z,4.53
2022-10-07T00:03:22.929Z,4.44
2022-10-07T00:06:00.808Z,4.40
2022-10-07T00:08:27.640Z,4.46
2022-10-07T00:10:54.156Z,4.35
2022-10-07T00:13:20.704Z,4.40
2022-10-07T00:15:47.280Z,4.37
2022-10-07T00:18:13.721Z,4.34
2022-10-07T00:20:40.877Z,4.38
2022-10-07T00:23:08.040Z,4.34
2022-10-07T00:25:38.106Z,4.34
2022-10-07T00:28:05.608Z,4.49
2022-10-07T00:30:32.538Z,4.41
2022-10-07T00:32:59.019Z,4.44
2022-10-07T00:35:25.524Z,4.33
2022-10-07T00:37:52.004Z,4.14
2022-10-07T00:40:18.475Z,4.15
2022-10-07T00:42:44.917Z,4.31
2022-10-07T00:45:19.290Z,4.38
2022-10-07T00:47:49.783Z,4.43
2022-10-07T00:50:25.822Z,4.35
2022-10-07T00:52:57.531Z,4.38
2022-10-07T00:55:29.237Z,4.40
2022-10-07T00:58:02.618Z,4.36
2022-10-07T01:00:29.288Z,4.30
2022-10-07T01:02:55.974Z,4.16
2022-10-07T01:05:31.031Z,4.25
2022-10-07T01:07:59.482Z,4.30
2022-10-07T01:10:47.753Z,4.32
2022-10-07T01:13:32.849Z,4.43
2022-10-07T01:16:47.809Z,4.49
2022-10-07T01:20:00.169Z,4.36
2022-10-07T01:22:44.727Z,4.38
2022-10-07T01:26:06.819Z,4.35
2022-10-07T01:28:57.969Z,4.32
2022-10-07T01:31:42.593Z,4.42
2022-10-07T01:34:14.144Z,4.49
2022-10-07T01:36:44.475Z,4.54
2022-10-07T01:39:16.534Z,4.52
2022-10-07T01:41:43.035Z,4.59
2022-10-07T01:44:13.738Z,4.56
2022-10-07T01:46:45.952Z,4.51
2022-10-07T01:49:12.387Z,4.43
2022-10-07T01:51:41.935Z,4.48
2022-10-07T01:54:41.188Z,4.50
2022-10-07T01:57:43.528Z,4.39
2022-10-07T02:00:12.987Z,4.15
2022-10-07T02:03:05.435Z,4.12
2022-10-07T02:06:01.341Z,4.13
2022-10-07T02:08:45.212Z,4.18
2022-10-07T02:11:27.855Z,4.24
2022-10-07T02:14:08.061Z,4.25
2022-10-07T02:16:44.511Z,4.15
2022-10-07T02:19:22.666Z,4.13
2022-10-07T02:21:52.986Z,4.21
2022-10-07T02:24:25.757Z,4.19
2022-10-07T02:26:56.590Z,4.25
2022-10-07T02:29:27.049Z,4.03
2022-10-07T02:31:58.550Z,3.78
2022-10-07T02:34:28.447Z,3.84
2022-10-07T02:37:02.879Z,3.85
2022-10-07T02:39:29.689Z,3.72
2022-10-07T02:42:21.792Z,3.73
2022-10-07T02:45:13.329Z,3.67
2022-10-07T02:47:51.803Z,3.69
2022-10-07T02:50:25.276Z,3.73
2022-10-07T02:52:56.041Z,3.82
2022-10-07T02:55:28.202Z,3.97
2022-10-07T02:58:00.560Z,4.01
2022-10-07T03:00:33.340Z,4.00
2022-10-07T03:03:03.507Z,3.92
2022-10-07T03:05:30.147Z,3.97
2022-10-07T03:08:05.970Z,4.02
2022-10-07T03:10:32.935Z,3.99
2022-10-07T03:12:59.396Z,3.90
2022-10-07T03:15:27.338Z,3.85
2022-10-07T03:17:53.838Z,3.86
2022-10-07T03:20:20.276Z,3.79
2022-10-07T03:22:46.779Z,3.79
2022-10-07T03:25:20.722Z,3.87
2022-10-07T03:27:48.573Z,3.92
2022-10-07T03:30:15.090Z,3.99
2022-10-07T03:32:41.708Z,3.95
2022-10-07T03:35:08.574Z,3.84
2022-10-07T03:37:35.047Z,3.80
2022-10-07T03:40:01.518Z,3.84
2022-10-07T03:42:28.068Z,3.90
2022-10-07T03:44:54.515Z,3.88
2022-10-07T03:47:21.663Z,3.87
2022-10-07T03:49:48.111Z,3.92
2022-10-07T03:52:14.698Z,3.88
2022-10-07T03:54:41.550Z,3.90
2022-10-07T03:57:27.978Z,3.88
2022-10-07T03:59:54.807Z,3.66
2022-10-07T04:02:23.325Z,3.59
2022-10-07T04:04:52.600Z,3.56
2022-10-07T04:07:22.558Z,3.46
2022-10-07T04:09:49.083Z,3.45
2022-10-07T04:12:15.709Z,3.54
2022-10-07T04:14:42.252Z,3.63
2022-10-07T04:17:08.723Z,3.68
2022-10-07T04:19:35.457Z,3.70
2022-10-07T04:22:07.632Z,3.62
2022-10-07T04:24:35.173Z,3.56
2022-10-07T04:27:04.824Z,3.46
2022-10-07T04:29:38.097Z,3.36
2022-10-07T04:32:04.690Z,3.34
2022-10-07T04:34:31.171Z,3.38
2022-10-07T04:37:00.866Z,3.45
2022-10-07T04:39:48.965Z,3.46
2022-10-07T04:42:33.699Z,3.29
2022-10-07T04:45:00.222Z,3.19
2022-10-07T04:47:26.663Z,3.20
2022-10-07T04:49:53.714Z,3.22
2022-10-07T04:52:20.794Z,3.17
2022-10-07T04:54:47.210Z,3.27
2022-10-07T04:57:14.557Z,3.31
2022-10-07T04:59:43.043Z,3.33
2022-10-07T05:02:10.016Z,3.29
2022-10-07T05:04:36.955Z,3.34
2022-10-07T05:07:04.458Z,3.27
2022-10-07T05:09:30.971Z,3.23
2022-10-07T05:11:57.406Z,3.18
2022-10-07T05:14:24.018Z,3.16
2022-10-07T05:16:51.550Z,3.12
2022-10-07T05:19:18.019Z,3.20
2022-10-07T05:21:44.501Z,3.27
2022-10-07T05:24:11.148Z,3.26
2022-10-07T05:26:37.850Z,3.25
2022-10-07T05:29:04.324Z,3.26
2022-10-07T05:31:30.788Z,3.30
2022-10-07T05:33:57.263Z,3.34
2022-10-07T05:36:23.900Z,3.34
2022-10-07T05:38:52.938Z,3.21
2022-10-07T05:41:21.668Z,3.14
2022-10-07T05:43:48.181Z,3.12
2022-10-07T05:46:20.435Z,3.16
2022-10-07T05:48:49.744Z,3.18
2022-10-07T05:51:16.351Z,3.21
2022-10-07T05:53:43.151Z,3.09
2022-10-07T05:56:13.956Z,3.04
2022-10-07T05:58:40.996Z,3.13
2022-10-07T06:01:14.389Z,3.20
2022-10-07T06:03:42.517Z,3.20
2022-10-07T06:06:09.671Z,3.14
2022-10-07T06:08:36.801Z,3.13
2022-10-07T06:11:25.235Z,3.07
2022-10-07T06:13:54.571Z,3.04
2022-10-07T06:16:23.129Z,3.10
2022-10-07T06:18:52.294Z,3.16
2022-10-07T06:21:20.716Z,3.18
2022-10-07T06:23:51.974Z,3.11
2022-10-07T06:26:19.894Z,3.04
2022-10-07T06:28:46.445Z,3.07
2022-10-07T06:31:17.481Z,3.12
2022-10-07T06:33:44.033Z,3.08
2022-10-07T06:36:14.387Z,3.02
2022-10-07T06:38:49.298Z,3.03
2022-10-07T06:41:15.909Z,3.16
2022-10-07T06:43:43.016Z,3.17
2022-10-07T06:46:18.425Z,2.93
2022-10-07T06:48:46.629Z,2.89
2022-10-07T06:51:16.359Z,3.00
2022-10-07T06:53:44.199Z,3.19
2022-10-07T06:56:14.120Z,3.29
2022-10-07T06:58:40.781Z,3.43
2022-10-07T07:01:07.348Z,3.47
2022-10-07T07:03:33.821Z,3.51
2022-10-07T07:06:00.319Z,3.31
2022-10-07T07:08:29.055Z,3.22
2022-10-07T07:10:56.118Z,3.19
2022-10-07T07:13:22.645Z,3.13
2022-10-07T07:15:57.496Z,3.01
2022-10-07T07:18:24.710Z,3.09
2022-10-07T07:20:51.684Z,3.22
2022-10-07T07:23:18.274Z,3.27
2022-10-07T07:25:45.835Z,3.31
2022-10-07T07:28:15.461Z,3.32
2022-10-07T07:30:42.945Z,3.31
2022-10-07T07:33:09.936Z,3.32
2022-10-07T07:35:41.208Z,3.53
2022-10-07T07:38:08.544Z,3.61
2022-10-07T07:40:39.666Z,3.51
2022-10-07T07:43:07.728Z,3.48
2022-10-07T07:45:37.620Z,3.50
2022-10-07T07:48:05.096Z,3.67
2022-10-07T07:50:31.664Z,3.76
2022-10-07T07:53:00.031Z,3.71
2022-10-07T07:55:26.494Z,3.73
2022-10-07T07:57:53.010Z,3.90
2022-10-07T08:00:19.705Z,4.09
2022-10-07T08:02:46.478Z,4.27
2022-10-07T08:05:12.971Z,4.31
2022-10-07T08:07:39.896Z,4.41
2022-10-07T08:10:10.150Z,4.57
2022-10-07T08:12:36.605Z,4.60
2022-10-07T08:15:03.184Z,4.63
2022-10-07T08:17:29.631Z,4.72
2022-10-07T08:19:56.108Z,4.82
2022-10-07T08:22:22.624Z,4.98
2022-10-07T08:24:49.060Z,5.10
2022-10-07T08:27:15.558Z,5.14
2022-10-07T08:29:42.062Z,5.28
2022-10-07T08:32:08.620Z,5.38
2022-10-07T08:34:36.368Z,5.49
2022-10-07T08:37:03.331Z,5.66
2022-10-07T08:39:31.043Z,5.82
2022-10-07T08:42:13.093Z,5.95
2022-10-07T08:44:45.050Z,6.08
2022-10-07T08:47:37.989Z,6.18
2022-10-07T08:50:34.134Z,6.27
2022-10-07T08:53:06.786Z,6.33
2022-10-07T08:55:41.573Z,6.46
2022-10-07T08:58:22.107Z,6.55
2022-10-07T09:00:59.208Z,6.69
2022-10-07T09:04:02.276Z,6.68
2022-10-07T09:06:42.719Z,6.74
2022-10-07T09:09:22.299Z,6.80
2022-10-07T09:11:52.387Z,6.95
2022-10-07T09:14:31.079Z,6.97
2022-10-07T09:17:07.422Z,7.13
2022-10-07T09:19:42.436Z,7.28
2022-10-07T09:22:31.894Z,7.42
2022-10-07T09:25:22.438Z,7.54
2022-10-07T09:27:50.386Z,7.74
2022-10-07T09:30:17.723Z,7.89
2022-10-07T09:32:49.099Z,7.98
2022-10-07T09:35:21.934Z,8.14
2022-10-07T09:38:04.059Z,8.28
2022-10-07T09:41:02.810Z,8.43
2022-10-07T09:43:32.531Z,8.44
2022-10-07T09:46:01.203Z,8.55
2022-10-07T09:48:34.660Z,8.59
2022-10-07T09:51:18.141Z,8.65
2022-10-07T09:54:06.750Z,8.70
2022-10-07T09:56:39.684Z,8.78
2022-10-07T09:59:26.976Z,8.86
2022-10-07T10:02:15.153Z,8.99
2022-10-07T10:04:53.992Z,9.12
2022-10-07T10:07:36.070Z,9.23
2022-10-07T10:10:21.317Z,9.39
2022-10-07T10:12:51.646Z,9.57
2022-10-07T10:15:40.635Z,9.65
2022-10-07T10:18:39.414Z,9.77
2022-10-07T10:21:19.591Z,9.89
2022-10-07T10:23:50.693Z,10.06
2022-10-07T10:26:44.766Z,10.12
2022-10-07T10:29:28.343Z,10.20
2022-10-07T10:32:00.839Z,10.24
2022-10-07T10:34:56.625Z,10.38
2022-10-07T10:37:40.052Z,10.49
2022-10-07T10:40:30.729Z,10.63
2022-10-07T10:43:24.743Z,10.78
2022-10-07T10:46:25.944Z,10.94
2022-10-07T10:49:10.622Z,11.10
2022-10-07T10:52:15.074Z,11.15
2022-10-07T10:55:12.718Z,11.20
2022-10-07T10:58:07.709Z,11.05
2022-10-07T11:00:48.567Z,11.28
2022-10-07T11:03:34.061Z,11.37
2022-10-07T11:06:10.620Z,11.55
2022-10-07T11:08:38.615Z,11.31
2022-10-07T11:11:12.086Z,11.57
2022-10-07T11:14:05.444Z,11.58
2022-10-07T11:16:41.286Z,11.68
2022-10-07T11:19:39.957Z,11.83
2022-10-07T11:22:17.543Z,11.79
2022-10-07T11:24:51.527Z,11.91
2022-10-07T11:27:32.514Z,11.85
2022-10-07T11:30:17.127Z,11.90
2022-10-07T11:32:58.570Z,12.09
2022-10-07T11:35:37.477Z,12.10
2022-10-07T11:38:29.205Z,12.11
2022-10-07T11:41:04.250Z,12.13
2022-10-07T11:43:56.992Z,12.12
2022-10-07T11:46:44.679Z,12.24
2022-10-07T11:49:11.065Z,12.25
2022-10-07T11:51:51.282Z,12.33
2022-10-07T11:54:27.344Z,12.41
2022-10-07T11:57:00.208Z,12.33
2022-10-07T11:59:33.920Z,12.40
2022-10-07T12:02:01.702Z,12.52
2022-10-07T12:04:31.094Z,12.59
2022-10-07T12:07:32.239Z,12.62
2022-10-07T12:10:07.521Z,12.67
2022-10-07T12:12:46.560Z,12.70
2022-10-07T12:15:39.705Z,12.60
2022-10-07T12:18:06.079Z,12.82
2022-10-07T12:20:50.923Z,12.88
2022-10-07T12:23:26.175Z,12.97
2022-10-07T12:26:30.248Z,12.95
2022-10-07T12:28:57.727Z,12.98
2022-10-07T12:31:24.088Z,12.96
2022-10-07T12:33:59.301Z,13.07
2022-10-07T12:36:28.457Z,13.16
2022-10-07T12:38:58.343Z,13.08
2022-10-07T12:41:39.989Z,13.11
2022-10-07T12:44:39.051Z,13.02
2022-10-07T12:47:24.750Z,13.07
2022-10-07T12:50:01.134Z,13.10
2022-10-07T12:52:51.973Z,13.07
2022-10-07T12:55:39.511Z,13.10
2022-10-07T12:58:52.109Z,13.16
2022-10-07T13:01:46.658Z,13.22
2022-10-07T13:04:38.828Z,13.25
2022-10-07T13:07:59.762Z,13.25
2022-10-07T13:10:44.477Z,13.39
2022-10-07T13:13:37.524Z,13.42
2022-10-07T13:16:19.172Z,13.43
2022-10-07T13:19:15.337Z,13.49
2022-10-07T13:22:01.486Z,13.55
2022-10-07T13:24:29.117Z,13.59
2022-10-07T13:26:57.080Z,13.65
2022-10-07T13:29:29.047Z,13.65
2022-10-07T13:32:23.637Z,13.54
2022-10-07T13:34:52.214Z,13.63
2022-10-07T13:37:33.655Z,13.64
2022-10-07T13:40:39.774Z,13.63
2022-10-07T13:43:09.225Z,13.67
2022-10-07T13:45:45.019Z,13.66
2022-10-07T13:48:30.847Z,13.69
2022-10-07T13:50:59.909Z,13.74
2022-10-07T13:53:31.781Z,13.79
2022-10-07T13:56:09.079Z,13.80
2022-10-07T13:58:37.285Z,13.78
2022-10-07T14:01:06.846Z,13.78
2022-10-07T14:03:33.413Z,13.78
2022-10-07T14:06:01.303Z,13.79
2022-10-07T14:08:29.177Z,13.84
2022-10-07T14:11:07.316Z,13.86
2022-10-07T14:13:37.699Z,13.87
2022-10-07T14:16:04.248Z,13.93
2022-10-07T14:18:31.751Z,13.95
2022-10-07T14:21:17.409Z,13.85
2022-10-07T14:23:48.610Z,13.93
2022-10-07T14:26:16.501Z,13.87
2022-10-07T14:28:43.646Z,13.89
2022-10-07T14:31:40.006Z,13.78
2022-10-07T14:34:34.735Z,13.76
2022-10-07T14:37:25.443Z,13.74
2022-10-07T14:39:54.826Z,13.71
2022-10-07T14:42:29.168Z,13.67
2022-10-07T14:44:57.742Z,13.61
2022-10-07T14:47:28.221Z,13.68
2022-10-07T14:49:59.273Z,13.64
2022-10-07T14:52:52.834Z,13.58
2022-10-07T14:55:24.574Z,13.70
2022-10-07T14:57:51.085Z,13.67
2022-10-07T15:00:24.093Z,13.64
2022-10-07T15:02:50.754Z,13.64
2022-10-07T15:05:18.895Z,13.61
2022-10-07T15:07:45.579Z,13.62
2022-10-07T15:10:23.597Z,13.60
2022-10-07T15:12:50.418Z,13.48
2022-10-07T15:15:18.115Z,13.50
2022-10-07T15:17:44.909Z,13.48
2022-10-07T15:20:14.645Z,13.42
2022-10-07T15:22:42.002Z,13.47
2022-10-07T15:25:11.405Z,13.47
2022-10-07T15:27:38.242Z,13.48
2022-10-07T15:30:07.120Z,13.39
2022-10-07T15:32:34.096Z,13.33
2022-10-07T15:35:00.558Z,13.30
2022-10-07T15:37:27.514Z,13.18
2022-10-07T15:39:54.702Z,13.12
2022-10-07T15:42:25.799Z,13.06
2022-10-07T15:44:53.087Z,13.12
2022-10-07T15:47:19.581Z,13.15
2022-10-07T15:49:46.049Z,13.14
2022-10-07T15:52:12.939Z,13.13
2022-10-07T15:54:40.173Z,13.11
2022-10-07T15:57:08.240Z,13.15
2022-10-07T15:59:35.360Z,13.09
2022-10-07T16:02:01.981Z,13.06
2022-10-07T16:04:28.572Z,13.09
2022-10-07T16:06:55.318Z,12.93
2022-10-07T16:09:23.284Z,12.89
2022-10-07T16:11:50.262Z,12.85
2022-10-07T16:14:16.882Z,12.80
2022-10-07T16:16:43.468Z,12.72
2022-10-07T16:19:12.120Z,12.70
2022-10-07T16:21:42.130Z,12.75
2022-10-07T16:24:12.471Z,12.83
2022-10-07T16:26:38.964Z,12.81
2022-10-07T16:29:31.433Z,12.70
2022-10-07T16:31:59.040Z,12.55
2022-10-07T16:34:28.261Z,12.37
2022-10-07T16:36:56.684Z,12.27
2022-10-07T16:39:23.978Z,12.32
2022-10-07T16:41:52.527Z,12.29
2022-10-07T16:44:20.846Z,12.15
2022-10-07T16:46:48.543Z,12.06
2022-10-07T16:49:17.964Z,12.03
2022-10-07T16:51:45.827Z,12.02
2022-10-07T16:54:16.920Z,11.92
2022-10-07T16:56:47.929Z,11.91
2022-10-07T16:59:23.444Z,11.94
2022-10-07T17:01:55.246Z,11.88
2022-10-07T17:04:22.200Z,11.76
2022-10-07T17:06:49.096Z,11.73
2022-10-07T17:09:17.314Z,11.63
2022-10-07T17:11:44.049Z,11.53
2022-10-07T17:14:16.182Z,11.40
2022-10-07T17:16:47.590Z,11.29
2022-10-07T17:19:17.951Z,11.03
2022-10-07T17:21:47.581Z,10.98
2022-10-07T17:24:16.652Z,10.89
2022-10-07T17:26:44.481Z,10.89
2022-10-07T17:29:14.306Z,10.83
2022-10-07T17:31:43.401Z,10.75
2022-10-07T17:34:11.956Z,10.64
2022-10-07T17:36:39.717Z,10.60
2022-10-07T17:39:06.582Z,10.67
2022-10-07T17:41:35.682Z,10.69
2022-10-07T17:44:09.139Z,10.47
2022-10-07T17:46:38.965Z,10.44
2022-10-07T17:49:08.661Z,10.27
2022-10-07T17:51:37.274Z,10.15
2022-10-07T17:54:06.158Z,10.08
2022-10-07T17:56:38.231Z,10.06
2022-10-07T17:59:05.314Z,10.00
2022-10-07T18:01:34.396Z,10.10
2022-10-07T18:04:14.795Z,9.93
2022-10-07T18:06:46.718Z,10.02
2022-10-07T18:09:18.463Z,9.91
2022-10-07T18:12:04.496Z,9.85
2022-10-07T18:14:53.477Z,9.77
2022-10-07T18:17:21.323Z,9.72
2022-10-07T18:19:50.860Z,9.67
2022-10-07T18:22:17.348Z,9.63
2022-10-07T18:24:43.887Z,9.69
2022-10-07T18:27:10.326Z,9.70
2022-10-07T18:29:40.099Z,9.65
2022-10-07T18:32:07.768Z,9.66
2022-10-07T18:34:34.534Z,9.56
2022-10-07T18:37:01.309Z,9.49
2022-10-07T18:39:29.470Z,9.38
2022-10-07T18:41:57.993Z,9.31
2022-10-07T18:44:24.716Z,9.26
2022-10-07T18:46:51.922Z,9.21
2022-10-07T18:49:18.548Z,9.25
2022-10-07T18:51:46.983Z,9.37
2022-10-07T18:54:13.695Z,9.44
2022-10-07T18:56:41.503Z,9.27
2022-10-07T18:59:12.936Z,9.18
2022-10-07T19:01:40.109Z,9.10
2022-10-07T19:04:08.915Z,9.16
2022-10-07T19:06:43.792Z,9.10
2022-10-07T19:09:15.342Z,8.99
2022-10-07T19:11:42.427Z,8.88
2022-10-07T19:14:09.233Z,8.70
2022-10-07T19:16:42.867Z,8.72
2022-10-07T19:19:24.455Z,8.66
2022-10-07T19:21:55.226Z,8.59
2022-10-07T19:24:44.756Z,8.61
2022-10-07T19:27:11.200Z,8.51
2022-10-07T19:29:37.798Z,8.49
2022-10-07T19:32:08.059Z,8.63
2022-10-07T19:34:35.202Z,8.75
2022-10-07T19:37:01.815Z,8.78
2022-10-07T19:39:28.362Z,8.78
2022-10-07T19:41:56.104Z,8.66
2022-10-07T19:44:22.565Z,8.63
2022-10-07T19:46:52.293Z,8.56
2022-10-07T19:49:18.757Z,8.34
2022-10-07T19:51:50.378Z,8.31
2022-10-07T19:54:16.882Z,8.35
2022-10-07T19:56:44.410Z,8.39
2022-10-07T19:59:13.876Z,8.31
2022-10-07T20:01:43.991Z,8.17
2022-10-07T20:04:18.526Z,8.10
2022-10-07T20:06:45.081Z,8.11
2022-10-07T20:09:15.606Z,7.97
2022-10-07T20:11:42.992Z,8.01
2022-10-07T20:14:10.317Z,8.07
2022-10-07T20:16:38.958Z,8.08
2022-10-07T20:19:12.200Z,8.08
2022-10-07T20:21:39.270Z,8.06
2022-10-07T20:24:07.844Z,7.88
2022-10-07T20:26:38.346Z,7.82
2022-10-07T20:29:10.053Z,7.74
2022-10-07T20:31:39.708Z,7.60
2022-10-07T20:34:10.135Z,7.58
2022-10-07T20:36:38.660Z,7.50
2022-10-07T20:39:32.483Z,7.36
2022-10-07T20:42:18.278Z,7.40
2022-10-07T20:44:47.690Z,7.35
2022-10-07T20:47:14.266Z,7.28
2022-10-07T20:49:42.058Z,7.22
2022-10-07T20:52:13.919Z,7.15
2022-10-07T20:54:40.583Z,7.26
2022-10-07T20:57:07.176Z,7.29
2022-10-07T20:59:33.673Z,7.26
2022-10-07T21:02:03.828Z,7.32
2022-10-07T21:04:33.308Z,7.24
2022-10-07T21:06:59.834Z,7.28
2022-10-07T21:09:26.498Z,7.18
2022-10-07T21:11:56.076Z,7.13
2022-10-07T21:14:23.201Z,7.14
2022-10-07T21:16:49.764Z,7.17
2022-10-07T21:19:17.011Z,7.19
2022-10-07T21:21:43.458Z,7.23
2022-10-07T21:24:10.691Z,7.31
2022-10-07T21:26:37.587Z,7.30
2022-10-07T21:29:08.003Z,7.26
2022-10-07T21:31:35.546Z,7.32
2022-10-07T21:34:08.039Z,7.36
2022-10-07T21:36:42.653Z,7.22
2022-10-07T21:39:11.943Z,7.18
2022-10-07T21:41:38.735Z,7.18
2022-10-07T21:44:11.292Z,7.09
2022-10-07T21:46:39.927Z,7.15
2022-10-07T21:49:07.654Z,7.04
2022-10-07T21:51:35.448Z,6.97
2022-10-07T21:54:02.935Z,6.87
2022-10-07T21:56:32.236Z,6.82
2022-10-07T21:59:04.211Z,6.87
2022-10-07T22:01:32.138Z,6.89
2022-10-07T22:04:02.066Z,6.94
2022-10-07T22:06:49.959Z,6.85
2022-10-07T22:09:20.860Z,6.84
2022-10-07T22:11:49.269Z,6.79
2022-10-07T22:14:18.508Z,6.63
2022-10-07T22:16:48.116Z,6.46
2022-10-07T22:19:14.876Z,6.41
2022-10-07T22:21:41.523Z,6.38
2022-10-07T22:24:09.173Z,6.42
2022-10-07T22:26:44.259Z,6.43
2022-10-07T22:29:12.949Z,6.43
2022-10-07T22:31:39.487Z,6.53
2022-10-07T22:34:06.912Z,6.68
2022-10-07T22:36:33.647Z,6.66
2022-10-07T22:39:00.275Z,6.70
2022-10-07T22:41:29.034Z,6.68
2022-10-07T22:43:55.678Z,6.63
2022-10-07T22:46:27.925Z,6.51
2022-10-07T22:48:58.475Z,6.43
2022-10-07T22:51:29.089Z,6.39
2022-10-07T22:53:57.195Z,6.27
2022-10-07T22:56:27.912Z,6.02
2022-10-07T22:58:58.785Z,5.93
2022-10-07T23:01:31.128Z,5.90
2022-10-07T23:04:00.668Z,5.91
2022-10-07T23:06:27.700Z,5.96
2022-10-07T23:08:54.373Z,5.91
2022-10-07T23:11:24.426Z,5.67
2022-10-07T23:13:51.874Z,5.67
2022-10-07T23:16:22.587Z,5.63
2022-10-07T23:18:52.744Z,5.73
2022-10-07T23:21:25.429Z,5.73
2022-10-07T23:24:01.675Z,5.78
2022-10-07T23:26:31.437Z,5.84
2022-10-07T23:29:00.506Z,5.79
2022-10-07T23:31:30.372Z,5.83
2022-10-07T23:33:58.614Z,5.84
2022-10-07T23:36:26.718Z,5.75
2022-10-07T23:38:53.927Z,5.63
2022-10-07T23:41:24.662Z,5.61
2022-10-07T23:43:53.604Z,5.63
2022-10-07T23:46:22.327Z,5.59
2022-10-07T23:48:49.619Z,5.62
2022-10-07T23:51:22.843Z,5.57
2022-10-07T23:53:49.738Z,5.48
2022-10-07T23:56:18.460Z,5.49
2022-10-07T23:58:44.917Z,5.43
